Time;durP1;ratioP1;P1;durP2;ratioP2;P2;SDS_P1;SDS_P2;PMS_P1;PMS_P2;Temp;Humidity;BMP_temperature;BMP_pressure;BME280_temperature;BME280_humidity;BME280_pressure;Samples;Min_cycle;Max_cycle;Signal;HPM_P1;HPM_P2
2022/09/05 00:01:09;;;;;;;5.07;1.67;;;18.40;99.70;;;;;;4948303;28;20119;-80
2022/09/05 00:04:19;;;;;;;3.80;1.60;;;18.30;99.90;;;;;;4962835;28;20133;-79
2022/09/05 00:06:52;;;;;;;2.20;1.67;;;18.30;99.70;;;;;;4906787;29;20064;-80
2022/09/05 00:09:36;;;;;;;4.35;1.67;;;18.20;99.90;;;;;;4904294;29;20082;-79
2022/09/05 00:12:04;;;;;;;3.75;1.90;;;18.20;99.90;;;;;;4936274;28;20051;-80
2022/09/05 00:14:44;;;;;;;6.43;1.77;;;18.10;99.90;;;;;;4963170;28;20530;-80
2022/09/05 00:17:25;;;;;;;2.97;1.67;;;18.10;99.90;;;;;;4946799;28;20054;-77
2022/09/05 00:20:03;;;;;;;2.72;1.90;;;18.00;99.90;;;;;;4944909;28;20046;-79
2022/09/05 00:23:05;;;;;;;4.40;2.15;;;18.00;99.90;;;;;;4931357;28;20086;-80
2022/09/05 00:25:50;;;;;;;4.40;2.15;;;18.00;99.90;;;;;;4947438;28;20050;-79
2022/09/05 00:28:26;;;;;;;4.15;2.30;;;17.90;99.90;;;;;;4931405;28;20047;-80
2022/09/05 00:31:04;;;;;;;3.42;1.67;;;17.90;99.90;;;;;;4930762;28;20039;-80
2022/09/05 00:33:44;;;;;;;5.32;1.90;;;17.90;99.90;;;;;;4931281;28;20068;-80
2022/09/05 00:36:13;;;;;;;5.38;1.92;;;17.90;99.90;;;;;;4960212;28;20055;-79
2022/09/05 00:38:50;;;;;;;3.90;2.05;;;17.80;99.90;;;;;;4947902;28;20050;-80
2022/09/05 00:41:17;;;;;;;4.90;1.80;;;17.80;99.90;;;;;;4931686;28;20054;-79
2022/09/05 00:43:48;;;;;;;6.43;2.00;;;17.80;99.90;;;;;;4962902;28;20178;-80
2022/09/05 00:46:35;;;;;;;4.05;1.80;;;17.80;99.90;;;;;;4929984;28;20035;-80
2022/09/05 00:49:21;;;;;;;8.50;2.22;;;17.70;99.90;;;;;;4929460;28;20055;-80
2022/09/05 00:51:59;;;;;;;6.78;2.10;;;17.80;99.90;;;;;;4959823;28;20059;-80
2022/09/05 00:54:32;;;;;;;6.05;2.13;;;17.70;99.90;;;;;;4943861;28;20050;-80
2022/09/05 00:57:30;;;;;;;4.72;2.00;;;17.70;99.90;;;;;;4943533;28;20050;-79
2022/09/05 01:00:02;;;;;;;4.47;2.10;;;17.70;99.90;;;;;;4958927;28;20085;-80
2022/09/05 01:02:48;;;;;;;6.00;1.58;;;17.60;99.90;;;;;;4942226;28;20073;-79
2022/09/05 01:05:27;;;;;;;7.22;2.35;;;17.50;99.90;;;;;;4959873;28;20036;-80
2022/09/05 01:08:21;;;;;;;3.60;2.30;;;17.50;99.90;;;;;;4945616;28;20051;-80
2022/09/05 01:10:56;;;;;;;4.32;2.50;;;17.50;99.90;;;;;;4961080;28;20101;-79
2022/09/05 01:13:40;;;;;;;;;;;17.40;99.90;;;;;;4957132;28;20077;-80
2022/09/05 01:16:22;;;;;;;7.07;2.22;;;17.40;99.90;;;;;;4945782;28;19929;-77
2022/09/05 01:19:09;;;;;;;5.00;2.10;;;17.30;99.90;;;;;;4960756;28;20039;-80
2022/09/05 01:22:05;;;;;;;4.93;2.42;;;17.30;99.90;;;;;;4927838;28;20063;-77
2022/09/05 01:24:30;;;;;;;;;;;17.30;99.90;;;;;;4961426;28;20047;-80
2022/09/05 01:27:16;;;;;;;;;;;17.30;99.90;;;;;;4946428;28;19934;-80
2022/09/05 01:29:57;;;;;;;2.47;2.20;;;17.30;99.90;;;;;;4910658;28;19945;-79
2022/09/05 01:32:36;;;;;;;4.85;2.13;;;17.30;99.90;;;;;;4928640;28;20045;-79
2022/09/05 01:35:41;;;;;;;4.97;2.42;;;17.40;99.90;;;;;;4963406;28;20042;-80
2022/09/05 01:38:31;;;;;;;5.45;2.30;;;17.40;99.90;;;;;;4926071;28;20090;-77
2022/09/05 01:41:05;;;;;;;3.45;2.30;;;17.40;99.90;;;;;;4956763;28;20231;-80
2022/09/05 01:43:33;;;;;;;3.08;2.30;;;17.40;99.90;;;;;;4925321;28;20086;-79
2022/09/05 01:46:20;;;;;;;5.00;2.60;;;17.40;99.90;;;;;;4960804;28;20459;-80
2022/09/05 01:48:59;;;;;;;4.47;2.10;;;17.40;99.90;;;;;;4959252;28;20062;-79
2022/09/05 01:51:35;;;;;;;7.60;2.13;;;17.30;99.90;;;;;;4958262;28;20527;-80
2022/09/05 01:54:23;;;;;;;2.70;2.05;;;17.30;99.90;;;;;;4934861;28;20062;-79
2022/09/05 01:57:10;;;;;;;6.45;2.55;;;17.30;99.90;;;;;;4928634;28;20094;-79
2022/09/05 02:00:08;;;;;;;7.28;2.28;;;17.30;99.90;;;;;;4944103;28;20035;-80
2022/09/05 02:03:07;;;;;;;4.15;2.25;;;17.30;99.90;;;;;;4959409;28;20053;-80
2022/09/05 02:05:50;;;;;;;6.72;2.72;;;17.20;99.90;;;;;;4931247;28;20051;-79
2022/09/05 02:08:19;;;;;;;3.33;2.65;;;17.10;99.90;;;;;;4960502;28;20130;-80
2022/09/05 02:11:02;;;;;;;2.88;2.47;;;17.10;99.90;;;;;;4928210;28;20187;-80
2022/09/05 02:13:47;;;;;;;4.80;3.20;;;17.10;99.90;;;;;;4943030;28;20054;-80
2022/09/05 02:16:29;;;;;;;3.27;2.37;;;17.00;99.90;;;;;;4942751;28;20051;-79
2022/09/05 02:19:09;;;;;;;4.65;2.47;;;16.90;99.90;;;;;;4926366;28;20313;-78
2022/09/05 02:21:40;;;;;;;3.20;2.90;;;16.90;99.90;;;;;;4959748;28;20050;-77
2022/09/05 02:24:38;;;;;;;5.07;2.95;;;16.90;99.90;;;;;;4946794;28;20043;-77
2022/09/05 02:27:34;;;;;;;4.25;3.05;;;16.90;99.90;;;;;;4945234;28;20147;-78
2022/09/05 02:30:20;;;;;;;3.65;2.53;;;16.80;99.90;;;;;;4943783;28;20053;-79
2022/09/05 02:33:16;;;;;;;5.45;3.15;;;16.80;99.90;;;;;;4961010;28;20054;-80
2022/09/05 02:35:50;;;;;;;4.32;2.38;;;16.70;99.90;;;;;;4960792;28;20101;-80
2022/09/05 02:38:28;;;;;;;4.95;2.63;;;16.70;99.90;;;;;;4927118;28;20248;-80
2022/09/05 02:40:58;;;;;;;5.47;2.85;;;16.70;99.90;;;;;;4948024;28;20043;-80
2022/09/05 02:43:39;;;;;;;5.50;2.70;;;16.60;99.90;;;;;;4961166;28;20130;-79
2022/09/05 02:46:14;;;;;;;3.42;2.95;;;16.60;99.90;;;;;;4951630;28;20055;-78
2022/09/05 02:49:00;;;;;;;8.48;3.28;;;16.60;99.90;;;;;;4964346;28;20085;-79
2022/09/05 02:51:47;;;;;;;4.72;3.40;;;16.60;99.90;;;;;;4945942;28;20047;-78
2022/09/05 02:54:19;;;;;;;5.78;3.08;;;16.60;99.90;;;;;;4953672;28;20496;-78
2022/09/05 02:56:50;;;;;;;8.18;3.50;;;16.60;99.90;;;;;;4965535;28;20070;-78
2022/09/05 02:59:34;;;;;;;5.13;3.00;;;16.50;99.90;;;;;;4930150;28;20067;-78
2022/09/05 03:02:38;;;;;;;7.57;3.83;;;16.60;99.90;;;;;;4934778;28;20939;-79
2022/09/05 03:05:06;;;;;;;8.93;3.65;;;16.60;99.90;;;;;;4950379;28;20098;-77
2022/09/05 03:08:01;;;;;;;8.25;3.60;;;16.50;99.90;;;;;;4951450;28;20047;-80
2022/09/05 03:11:03;;;;;;;4.93;3.45;;;16.60;99.90;;;;;;4961345;28;20051;-80
2022/09/05 03:14:06;;;;;;;4.45;3.20;;;16.60;99.90;;;;;;4931737;28;20039;-80
2022/09/05 03:17:09;;;;;;;3.80;3.40;;;16.60;99.90;;;;;;4963848;28;20051;-80
2022/09/05 03:19:53;;;;;;;5.78;2.80;;;16.60;99.90;;;;;;4932025;28;20637;-77
2022/09/05 03:22:41;;;;;;;6.50;3.47;;;16.60;99.90;;;;;;4961288;28;20070;-78
2022/09/05 03:25:25;;;;;;;8.10;3.13;;;16.60;99.90;;;;;;4962468;28;20050;-78
2022/09/05 03:28:17;;;;;;;3.58;3.28;;;16.70;99.90;;;;;;4948861;28;20043;-80
2022/09/05 03:30:56;;;;;;;3.38;2.95;;;16.70;99.90;;;;;;4961216;28;20039;-80
2022/09/05 03:34:00;;;;;;;7.43;3.67;;;16.70;99.90;;;;;;4946787;28;20051;-79
2022/09/05 03:36:26;;;;;;;4.45;3.67;;;16.70;99.90;;;;;;4943726;28;21290;-79
2022/09/05 03:39:30;;;;;;;4.45;3.88;;;16.70;99.90;;;;;;4948162;28;20098;-79
2022/09/05 03:42:17;;;;;;;7.75;3.92;;;16.70;99.90;;;;;;4884930;29;20148;-80
2022/09/05 03:45:07;;;;;;;9.57;3.47;;;16.70;99.90;;;;;;4870012;29;20049;-79
2022/09/05 03:47:53;;;;;;;7.07;3.83;;;16.60;99.90;;;;;;4930868;28;20062;-78
2022/09/05 03:50:46;;;;;;;5.53;3.60;;;16.60;99.90;;;;;;4973597;28;20098;-79
2022/09/05 03:53:34;;;;;;;4.97;3.80;;;16.60;99.90;;;;;;4961704;28;20070;-78
2022/09/05 03:56:29;;;;;;;6.47;4.18;;;16.60;99.90;;;;;;4963465;28;20047;-79
2022/09/05 03:59:28;;;;;;;5.72;3.88;;;16.60;99.90;;;;;;4964566;28;20119;-80
2022/09/05 04:02:03;;;;;;;5.78;3.90;;;16.50;99.90;;;;;;4930067;28;20130;-79
2022/09/05 04:04:41;;;;;;;7.13;4.43;;;16.50;99.90;;;;;;4962303;28;20408;-80
2022/09/05 04:07:10;;;;;;;4.47;3.70;;;16.40;99.90;;;;;;4947396;28;20043;-76
2022/09/05 04:09:45;;;;;;;4.50;3.67;;;16.40;99.90;;;;;;4946846;28;20413;-78
2022/09/05 04:12:17;;;;;;;7.40;4.30;;;16.30;99.90;;;;;;4959089;28;20047;-78
2022/09/05 04:14:53;;;;;;;8.80;4.55;;;16.20;99.90;;;;;;4928532;28;20039;-80
2022/09/05 04:17:41;;;;;;;8.55;4.63;;;16.20;99.90;;;;;;4943215;28;20523;-79
2022/09/05 04:20:10;;;;;;;9.27;4.95;;;16.20;99.90;;;;;;4930156;28;20058;-77
2022/09/05 04:23:09;;;;;;;4.68;4.13;;;16.20;99.90;;;;;;4917799;28;20058;-77
2022/09/05 04:25:51;;;;;;;5.10;4.40;;;16.20;99.90;;;;;;4914957;28;20119;-81
2022/09/05 04:29:02;;;;;;;4.55;4.15;;;16.30;99.90;;;;;;4944893;28;20563;-81
2022/09/05 04:31:52;;;;;;;5.53;4.10;;;16.30;99.90;;;;;;4956318;28;20139;-80
2022/09/05 04:34:48;;;;;;;6.00;4.90;;;16.30;99.90;;;;;;4924838;28;20066;-80
2022/09/05 04:37:36;;;;;;;5.47;5.00;;;16.40;99.90;;;;;;4959723;28;20125;-80
2022/09/05 04:40:39;;;;;;;6.47;5.00;;;16.40;99.90;;;;;;4944070;28;20476;-80
2022/09/05 04:43:17;;;;;;;5.38;4.60;;;16.30;99.90;;;;;;4960318;28;20058;-79
2022/09/05 04:45:52;;;;;;;5.93;5.20;;;16.40;99.90;;;;;;4960307;28;20053;-79
2022/09/05 04:48:31;;;;;;;6.50;5.60;;;16.30;99.90;;;;;;4944135;28;20054;-81
2022/09/05 04:51:05;;;;;;;6.05;4.90;;;16.30;99.90;;;;;;4942664;28;20306;-79
2022/09/05 04:53:52;;;;;;;4.38;4.00;;;16.30;99.90;;;;;;4942329;28;20039;-79
2022/09/05 04:56:25;;;;;;;9.63;4.82;;;16.30;99.90;;;;;;4957804;28;20082;-79
2022/09/05 04:59:01;;;;;;;11.93;5.00;;;16.20;99.90;;;;;;4925187;28;20094;-78
2022/09/05 05:01:37;;;;;;;19.90;5.70;;;16.20;99.90;;;;;;4958123;28;20050;-79
2022/09/05 05:04:10;;;;;;;12.15;4.70;;;16.10;99.90;;;;;;4957836;28;20082;-78
2022/09/05 05:06:44;;;;;;;8.45;4.32;;;16.10;99.90;;;;;;4955691;28;20170;-79
2022/09/05 05:09:35;;;;;;;9.33;4.87;;;16.10;99.90;;;;;;4958291;28;20078;-77
2022/09/05 05:12:22;;;;;;;6.95;4.82;;;16.00;99.90;;;;;;4946774;28;20291;-80
2022/09/05 05:14:56;;;;;;;4.65;4.25;;;16.00;99.90;;;;;;4959962;28;20072;-81
2022/09/05 05:17:51;;;;;;;6.45;4.32;;;16.10;99.90;;;;;;4946943;28;20074;-79
2022/09/05 05:20:28;;;;;;;5.80;4.22;;;16.10;99.90;;;;;;4940711;28;20471;-78
2022/09/05 05:23:07;;;;;;;5.90;4.75;;;16.20;99.90;;;;;;4942643;28;20121;-78
2022/09/05 05:25:48;;;;;;;9.50;3.78;;;16.30;99.90;;;;;;4942739;28;20047;-78
2022/09/05 05:28:26;;;;;;;7.82;3.95;;;16.40;99.90;;;;;;4924517;28;20055;-77
2022/09/05 05:30:55;;;;;;;5.65;4.28;;;16.60;99.90;;;;;;4940010;28;20028;-78
2022/09/05 05:33:30;;;;;;;6.38;4.28;;;16.80;99.90;;;;;;4955353;28;20102;-78
2022/09/05 05:35:59;;;;;;;5.32;4.10;;;16.90;99.90;;;;;;4924377;28;20055;-78
2022/09/05 05:38:47;;;;;;;30.27;6.63;;;16.90;99.90;;;;;;4948115;28;20042;-78
2022/09/05 05:41:41;;;;;;;11.25;4.45;;;17.00;99.90;;;;;;4963455;28;20051;-78
2022/09/05 05:44:58;;;;;;;21.13;4.88;;;17.20;99.90;;;;;;4964189;28;20052;-80
2022/09/05 05:47:41;;;;;;;6.35;4.38;;;17.30;99.90;;;;;;4923920;28;20058;-80
2022/09/05 05:50:33;;;;;;;5.85;4.13;;;17.50;99.90;;;;;;4965787;28;20097;-79
2022/09/05 05:53:25;;;;;;;5.30;4.80;;;17.60;99.90;;;;;;4948460;28;20043;-81
2022/09/05 05:56:12;;;;;;;5.63;4.20;;;17.60;99.90;;;;;;4933531;28;20054;-82
2022/09/05 05:58:49;;;;;;;4.75;4.28;;;17.80;99.90;;;;;;4966378;28;20381;-80
2022/09/05 06:01:53;;;;;;;4.95;3.88;;;18.40;99.90;;;;;;4965859;28;20070;-79
2022/09/05 06:04:47;;;;;;;6.63;3.50;;;19.60;99.90;;;;;;4944855;28;20036;-80
2022/09/05 06:07:43;;;;;;;7.57;3.60;;;21.00;99.90;;;;;;4940024;28;20047;-82
2022/09/05 06:10:33;;;;;;;7.93;4.30;;;22.10;99.90;;;;;;4967079;28;20051;-82
2022/09/05 06:13:30;;;;;;;4.57;3.67;;;22.90;99.90;;;;;;4965565;28;20134;-79
2022/09/05 06:16:33;;;;;;;5.88;4.10;;;23.50;98.30;;;;;;4948934;28;20051;-81
2022/09/05 06:19:37;;;;;;;3.65;3.35;;;24.10;96.70;;;;;;4943210;28;20597;-81
2022/09/05 06:22:40;;;;;;;7.20;4.03;;;24.50;95.60;;;;;;4938657;28;20039;-81
2022/09/05 06:25:18;;;;;;;7.00;3.75;;;25.10;95.20;;;;;;4932327;29;20422;-81
2022/09/05 06:28:02;;;;;;;3.85;3.47;;;25.50;94.30;;;;;;4966400;28;20074;-81
2022/09/05 06:30:39;;;;;;;7.88;3.60;;;25.80;93.40;;;;;;4968820;28;20507;-81
2022/09/05 06:33:17;;;;;;;12.70;3.92;;;26.20;93.40;;;;;;4951187;28;20110;-81
2022/09/05 06:35:55;;;;;;;8.75;3.95;;;27.00;92.80;;;;;;4934793;28;20062;-81
2022/09/05 06:38:49;;;;;;;12.13;3.75;;;27.20;91.60;;;;;;4964868;28;20054;-81
2022/09/05 06:41:24;;;;;;;5.90;4.00;;;27.70;90.90;;;;;;4965110;28;20035;-81
2022/09/05 06:44:14;;;;;;;11.60;3.92;;;28.30;90.60;;;;;;4965329;28;20070;-82
2022/09/05 06:46:42;;;;;;;9.15;4.25;;;28.90;90.10;;;;;;4931293;28;20134;-81
2022/09/05 06:49:27;;;;;;;11.07;3.20;;;29.50;89.00;;;;;;4931990;28;20031;-82
2022/09/05 06:52:38;;;;;;;6.75;3.20;;;30.00;86.70;;;;;;4949265;28;20094;-81
2022/09/05 06:55:35;;;;;;;6.63;3.30;;;30.40;86.20;;;;;;4934541;29;20138;-81
2022/09/05 06:58:13;;;;;;;6.07;3.35;;;30.50;84.00;;;;;;4948982;28;20061;-81
2022/09/05 07:00:47;;;;;;;5.05;3.53;;;30.10;83.90;;;;;;4933001;29;20130;-82
2022/09/05 07:03:31;;;;;;;6.22;3.58;;;29.50;84.10;;;;;;4948692;28;20058;-81
2022/09/05 07:06:09;;;;;;;8.77;3.70;;;29.40;84.20;;;;;;4948911;28;20035;-81
2022/09/05 07:08:52;;;;;;;5.30;3.70;;;29.30;84.60;;;;;;4945636;28;20443;-81
2022/09/05 07:11:27;;;;;;;7.20;3.45;;;28.40;84.50;;;;;;4934746;28;20059;-81
2022/09/05 07:14:02;;;;;;;7.70;3.70;;;27.40;86.00;;;;;;4950579;28;20035;-81
2022/09/05 07:16:49;;;;;;;6.63;3.15;;;26.90;87.50;;;;;;4950384;28;20039;-82
2022/09/05 07:19:24;;;;;;;6.18;3.78;;;26.30;88.70;;;;;;4962174;28;20050;-81
2022/09/05 07:21:56;;;;;;;10.23;4.13;;;25.60;89.50;;;;;;4961923;28;20039;-82
2022/09/05 07:24:26;;;;;;;8.27;4.00;;;25.20;90.50;;;;;;4964208;28;20054;-81
2022/09/05 07:26:56;;;;;;;4.80;3.65;;;24.80;90.90;;;;;;4936136;29;20039;-81
2022/09/05 07:29:36;;;;;;;8.98;4.07;;;24.50;91.50;;;;;;4961602;28;20054;-81
2022/09/05 07:32:05;;;;;;;11.90;4.20;;;24.30;92.00;;;;;;4964284;28;20487;-81
2022/09/05 07:34:36;;;;;;;7.90;3.92;;;24.20;92.20;;;;;;4962960;28;20130;-81
2022/09/05 07:37:09;;;;;;;10.05;3.47;;;24.00;92.70;;;;;;4964319;28;20055;-81
2022/09/05 07:39:42;;;;;;;5.53;3.47;;;23.90;93.00;;;;;;4949085;28;20042;-81
2022/09/05 07:42:17;;;;;;;7.63;3.75;;;23.60;93.20;;;;;;4964770;28;20046;-81
2022/09/05 07:45:12;;;;;;;8.10;4.80;;;23.70;93.20;;;;;;4946465;28;20105;-81
2022/09/05 07:47:59;;;;;;;9.18;4.07;;;23.50;93.20;;;;;;4964680;28;20039;-81
2022/09/05 07:50:27;;;;;;;5.22;3.58;;;23.20;93.60;;;;;;4947064;28;20130;-81
2022/09/05 07:52:55;;;;;;;5.22;3.50;;;23.10;94.00;;;;;;4961533;28;20062;-81
2022/09/05 07:55:34;;;;;;;4.85;3.97;;;22.90;94.40;;;;;;4964023;28;20062;-81
2022/09/05 07:58:06;;;;;;;4.32;3.92;;;23.00;94.70;;;;;;4934312;28;20047;-81
2022/09/05 08:00:33;;;;;;;7.45;3.80;;;22.90;94.80;;;;;;4948650;28;20074;-81
2022/09/05 08:03:07;;;;;;;4.38;3.63;;;23.00;95.20;;;;;;4964957;28;20074;-81
2022/09/05 08:05:45;;;;;;;5.57;3.40;;;23.20;95.20;;;;;;4945482;28;20043;-81
2022/09/05 08:08:17;;;;;;;4.65;3.65;;;23.70;95.20;;;;;;4962537;28;20463;-81
2022/09/05 08:10:55;;;;;;;8.18;3.95;;;23.80;95.30;;;;;;4934937;28;20051;-81
2022/09/05 08:13:42;;;;;;;10.40;3.50;;;24.10;94.90;;;;;;4964954;28;20411;-81
2022/09/05 08:16:21;;;;;;;8.85;3.88;;;24.30;94.80;;;;;;4963020;28;20158;-81
2022/09/05 08:18:54;;;;;;;11.27;3.92;;;24.50;94.80;;;;;;4961213;28;20047;-81
2022/09/05 08:21:47;;;;;;;9.20;3.30;;;24.80;94.50;;;;;;4963756;28;20039;-82
2022/09/05 08:24:24;;;;;;;12.55;3.50;;;25.00;94.10;;;;;;4939791;28;20428;-81
2022/09/05 08:27:17;;;;;;;9.57;3.83;;;25.10;93.70;;;;;;4962501;28;20078;-81
2022/09/05 08:29:52;;;;;;;7.47;3.97;;;25.20;93.80;;;;;;4964106;28;20122;-82
2022/09/05 08:32:40;;;;;;;15.00;4.13;;;25.40;93.70;;;;;;4950610;28;20042;-81
2022/09/05 08:35:24;;;;;;;9.52;3.88;;;25.60;93.60;;;;;;4963474;28;20054;-81
2022/09/05 08:37:52;;;;;;;5.50;3.53;;;25.70;93.30;;;;;;4947789;28;20567;-81
2022/09/05 08:40:31;;;;;;;5.35;3.60;;;25.70;93.10;;;;;;4961869;28;20043;-81
2022/09/05 08:43:21;;;;;;;9.80;3.80;;;25.70;93.20;;;;;;4962771;28;20058;-81
2022/09/05 08:46:05;;;;;;;12.35;3.45;;;25.80;93.00;;;;;;4964390;28;20394;-82
2022/09/05 08:49:02;;;;;;;6.53;3.17;;;25.70;93.30;;;;;;4914259;28;20465;-81
2022/09/05 08:51:35;;;;;;;7.70;3.53;;;25.90;93.10;;;;;;4961164;28;20046;-81
2022/09/05 08:54:40;;;;;;;11.77;3.28;;;26.20;93.40;;;;;;4951085;28;20070;-82
2022/09/05 08:57:35;;;;;;;6.28;3.70;;;26.40;93.20;;;;;;4950201;28;20058;-81
2022/09/05 09:00:06;;;;;;;6.65;3.67;;;26.50;92.60;;;;;;4929684;28;20052;-81
2022/09/05 09:02:48;;;;;;;4.75;3.45;;;26.60;92.30;;;;;;4949112;28;20090;-81
2022/09/05 09:05:33;;;;;;;3.72;2.95;;;26.70;92.40;;;;;;4962872;28;20054;-81
2022/09/05 09:08:19;;;;;;;4.70;3.30;;;26.80;92.50;;;;;;4928175;28;20050;-81
2022/09/05 09:10:56;;;;;;;;;;;27.30;92.60;;;;;;4960970;28;20035;-81
2022/09/05 09:13:53;;;;;;;3.13;2.13;;;27.40;92.00;;;;;;4966091;28;20378;-81
2022/09/05 09:16:50;;;;;;;3.60;2.65;;;27.60;91.70;;;;;;4963870;28;20043;-81
2022/09/05 09:19:28;;;;;;;5.63;2.83;;;27.80;91.90;;;;;;4930961;28;20510;-81
2022/09/05 09:22:21;;;;;;;3.58;2.50;;;28.10;91.90;;;;;;4945783;28;20035;-81
2022/09/05 09:24:57;;;;;;;4.40;2.90;;;28.20;90.90;;;;;;4962051;28;20066;-82
2022/09/05 09:27:45;;;;;;;5.28;2.40;;;28.30;91.30;;;;;;4963458;28;20550;-81
2022/09/05 09:30:12;;;;;;;4.88;2.83;;;28.40;91.30;;;;;;4962115;28;20365;-81
2022/09/05 09:32:47;;;;;;;6.57;2.50;;;28.40;91.70;;;;;;4933314;29;20130;-82
2022/09/05 09:35:16;;;;;;;6.72;3.00;;;28.50;91.40;;;;;;4934240;28;20579;-81
2022/09/05 09:38:06;;;;;;;6.55;2.67;;;28.50;91.10;;;;;;4961372;28;20051;-81
2022/09/05 09:40:50;;;;;;;4.45;2.20;;;28.60;91.10;;;;;;4929442;28;20054;-82
2022/09/05 09:44:04;;;;;;;2.33;1.77;;;28.60;91.30;;;;;;4962274;28;20583;-82
2022/09/05 09:46:40;;;;;;;4.10;2.17;;;28.70;91.10;;;;;;4930054;28;20526;-81
2022/09/05 09:49:19;;;;;;;3.45;2.00;;;28.70;90.40;;;;;;4962031;28;20074;-82
2022/09/05 09:51:44;;;;;;;3.33;1.73;;;28.80;90.30;;;;;;4948749;28;20070;-82
2022/09/05 09:54:17;;;;;;;3.80;2.25;;;29.00;90.40;;;;;;4950154;28;20123;-81
2022/09/05 09:57:05;;;;;;;10.23;2.70;;;29.20;90.50;;;;;;4936759;29;20058;-81
2022/09/05 09:59:58;;;;;;;4.57;1.90;;;29.00;90.10;;;;;;4953752;28;20055;-81
2022/09/05 10:02:40;;;;;;;3.47;1.92;;;28.80;90.00;;;;;;4970553;28;20142;-82
2022/09/05 10:05:31;;;;;;;4.28;1.77;;;28.80;90.80;;;;;;4969106;28;20047;-82
2022/09/05 10:08:15;;;;;;;12.18;2.17;;;28.90;90.80;;;;;;4954087;28;20130;-79
2022/09/05 10:11:05;;;;;;;5.60;2.00;;;28.90;89.80;;;;;;4956940;28;20051;-79
2022/09/05 10:13:37;;;;;;;5.70;1.52;;;28.90;89.70;;;;;;4955178;28;20036;-81
2022/09/05 10:16:35;;;;;;;6.22;2.10;;;28.90;90.40;;;;;;4972609;28;20043;-81
2022/09/05 10:19:41;;;;;;;16.75;2.00;;;29.00;90.50;;;;;;4953619;29;20039;-80
2022/09/05 10:22:18;;;;;;;4.55;2.33;;;29.30;90.30;;;;;;4968729;28;20082;-81
2022/09/05 10:25:08;;;;;;;3.45;2.13;;;29.40;88.70;;;;;;4970180;28;20046;-81
2022/09/05 10:28:23;;;;;;;4.28;1.73;;;29.50;89.70;;;;;;4968180;28;20047;-81
2022/09/05 10:30:58;;;;;;;4.85;2.00;;;29.60;89.90;;;;;;4842496;29;20142;-80
2022/09/05 10:33:38;;;;;;;4.30;1.70;;;29.60;88.30;;;;;;4842726;29;20148;-78
2022/09/05 10:36:21;;;;;;;7.43;1.83;;;29.70;89.00;;;;;;4904159;29;20774;-79
2022/09/05 10:39:13;;;;;;;9.18;2.55;;;29.70;88.20;;;;;;4968202;28;20408;-80
2022/09/05 10:41:43;;;;;;;6.80;1.67;;;29.70;87.80;;;;;;4957110;28;20045;-80
2022/09/05 10:44:12;;;;;;;5.03;1.90;;;29.60;87.60;;;;;;4959858;28;20046;-79
2022/09/05 10:46:56;;;;;;;6.60;1.73;;;29.70;87.70;;;;;;4971615;28;20085;-77
2022/09/05 10:49:29;;;;;;;2.17;1.53;;;29.70;86.90;;;;;;4955338;28;20079;-79
2022/09/05 10:52:42;;;;;;;5.25;1.60;;;29.80;86.30;;;;;;4935717;28;20047;-77
2022/09/05 10:55:24;;;;;;;4.15;1.50;;;29.90;84.80;;;;;;4939833;29;20055;-79
2022/09/05 10:58:05;;;;;;;2.92;1.27;;;30.00;83.20;;;;;;4952607;28;20054;-80
2022/09/05 11:01:32;;;;;;;1.63;1.30;;;29.70;82.60;;;;;;4966531;28;20051;-80
2022/09/05 11:04:18;;;;;;;2.47;1.38;;;29.70;84.90;;;;;;4939762;29;20050;-80
2022/09/05 11:06:44;;;;;;;5.22;1.60;;;29.80;84.50;;;;;;4935458;28;20059;-81
2022/09/05 11:09:48;;;;;;;5.30;1.40;;;29.80;84.80;;;;;;4947914;28;20071;-80
2022/09/05 11:12:24;;;;;;;2.75;1.40;;;29.90;84.10;;;;;;4950117;28;20055;-80
2022/09/05 11:14:54;;;;;;;3.75;1.23;;;30.00;83.50;;;;;;4967170;28;20047;-80
2022/09/05 11:17:29;;;;;;;1.35;0.85;;;30.20;82.30;;;;;;4965822;28;20444;-79
2022/09/05 11:20:04;;;;;;;2.53;0.98;;;30.30;80.30;;;;;;4965691;28;20051;-79
2022/09/05 11:22:35;;;;;;;;;;;30.30;80.70;;;;;;4950552;28;20039;-80
2022/09/05 11:25:03;;;;;;;4.63;1.15;;;30.10;82.00;;;;;;4966178;28;19970;-80
2022/09/05 11:27:39;;;;;;;5.63;1.58;;;29.70;82.00;;;;;;4966009;28;20333;-79
2022/09/05 11:30:19;;;;;;;1.85;1.10;;;29.50;82.50;;;;;;4953159;28;20660;-80
2022/09/05 11:33:08;;;;;;;3.83;1.30;;;29.60;83.30;;;;;;4953663;28;20047;-77
2022/09/05 11:36:01;;;;;;;2.70;1.52;;;29.70;83.10;;;;;;4966694;28;20054;-79
2022/09/05 11:39:04;;;;;;;3.80;1.35;;;29.90;82.10;;;;;;4963672;28;20071;-80
2022/09/05 11:41:39;;;;;;;2.47;1.15;;;29.70;80.30;;;;;;4948564;28;20035;-79
2022/09/05 11:44:22;;;;;;;4.32;1.48;;;29.60;81.10;;;;;;4963098;28;21255;-80
2022/09/05 11:47:14;;;;;;;2.40;1.20;;;29.60;80.70;;;;;;4934171;28;20067;-79
2022/09/05 11:50:04;;;;;;;2.97;1.27;;;29.50;80.50;;;;;;4965628;28;20051;-80
2022/09/05 11:53:07;;;;;;;3.88;1.35;;;29.40;80.90;;;;;;4965122;28;20046;-80
2022/09/05 11:56:03;;;;;;;1.63;1.08;;;29.50;79.80;;;;;;4949504;28;20039;-80
2022/09/05 11:59:05;;;;;;;2.78;1.20;;;29.40;78.20;;;;;;4949799;28;20054;-80
2022/09/05 12:01:43;;;;;;;3.42;1.10;;;29.60;80.80;;;;;;4949466;28;20054;-80
2022/09/05 12:04:43;;;;;;;1.20;1.08;;;29.70;80.00;;;;;;4934031;28;20043;-80
2022/09/05 12:07:33;;;;;;;4.80;1.52;;;29.70;80.10;;;;;;4964615;28;20058;-80
2022/09/05 12:10:16;;;;;;;5.55;0.95;;;29.70;82.00;;;;;;4964126;28;20165;-80
2022/09/05 12:13:01;;;;;;;2.95;1.17;;;29.90;79.90;;;;;;4949907;28;20051;-77
2022/09/05 12:15:32;;;;;;;3.05;1.67;;;29.70;80.20;;;;;;4936136;28;20596;-81
2022/09/05 12:18:19;;;;;;;5.25;1.50;;;29.60;79.60;;;;;;4918933;28;20047;-80
2022/09/05 12:21:11;;;;;;;3.28;1.08;;;29.80;79.80;;;;;;4967008;28;20051;-80
2022/09/05 12:23:44;;;;;;;2.28;1.17;;;29.80;79.20;;;;;;4962711;28;20043;-80
2022/09/05 12:26:25;;;;;;;3.35;1.13;;;29.80;78.20;;;;;;4964139;28;20031;-81
2022/09/05 12:28:57;;;;;;;1.60;1.20;;;29.90;80.90;;;;;;4961017;28;20043;-80
2022/09/05 12:31:34;;;;;;;3.38;1.02;;;29.90;79.20;;;;;;4934966;28;20404;-80
2022/09/05 12:34:12;;;;;;;1.77;1.02;;;30.00;78.30;;;;;;4927704;28;20132;-80
2022/09/05 12:36:42;;;;;;;2.15;1.10;;;30.00;79.40;;;;;;4964540;28;20051;-79
2022/09/05 12:39:21;;;;;;;3.30;1.40;;;29.90;80.00;;;;;;4965025;28;20051;-80
2022/09/05 12:42:08;;;;;;;2.15;1.05;;;29.80;78.90;;;;;;4949396;28;20043;-80
2022/09/05 12:45:08;;;;;;;4.97;0.70;;;30.00;80.90;;;;;;4965517;28;20279;-80
2022/09/05 12:47:52;;;;;;;2.25;1.00;;;30.00;76.80;;;;;;4948012;28;20036;-80
2022/09/05 12:50:19;;;;;;;1.23;0.90;;;30.10;76.80;;;;;;4952755;28;20047;-80
2022/09/05 12:53:05;;;;;;;3.22;1.70;;;30.00;75.70;;;;;;4948862;28;20046;-80
2022/09/05 12:55:42;;;;;;;4.15;1.38;;;30.00;73.90;;;;;;4935549;28;20035;-80
2022/09/05 12:58:18;;;;;;;1.13;0.82;;;29.80;75.70;;;;;;4934550;28;20047;-81
2022/09/05 13:00:45;;;;;;;2.75;1.20;;;29.80;75.20;;;;;;4966693;28;20050;-81
2022/09/05 13:03:22;;;;;;;1.38;0.80;;;29.90;75.50;;;;;;4949150;28;20066;-81
2022/09/05 13:06:18;;;;;;;1.40;0.82;;;30.00;75.50;;;;;;4949891;28;20511;-79
2022/09/05 13:08:47;;;;;;;1.63;1.02;;;30.20;75.60;;;;;;4958210;28;20046;-80
2022/09/05 13:11:17;;;;;;;3.95;1.17;;;30.30;76.30;;;;;;4961312;28;20051;-79
2022/09/05 13:13:52;;;;;;;3.42;1.38;;;30.50;76.00;;;;;;4964723;28;20109;-80
2022/09/05 13:16:23;;;;;;;2.22;1.20;;;30.30;74.70;;;;;;4949865;28;20054;-81
2022/09/05 13:19:06;;;;;;;5.43;1.15;;;30.30;75.90;;;;;;4963109;28;20493;-79
2022/09/05 13:21:38;;;;;;;5.45;1.23;;;30.00;75.20;;;;;;4965592;28;20051;-80
2022/09/05 13:24:26;;;;;;;5.05;1.40;;;29.90;76.20;;;;;;4934403;28;20051;-80
2022/09/05 13:26:52;;;;;;;4.10;1.30;;;30.00;76.70;;;;;;4947628;28;20051;-80
2022/09/05 13:29:22;;;;;;;4.10;1.35;;;30.10;76.90;;;;;;4963429;28;20093;-80
2022/09/05 13:31:52;;;;;;;5.45;1.50;;;30.10;76.50;;;;;;4965848;28;20050;-80
2022/09/05 13:34:36;;;;;;;2.70;1.20;;;30.10;76.20;;;;;;4951189;28;20039;-80
2022/09/05 13:37:21;;;;;;;2.72;0.90;;;30.20;77.00;;;;;;4947921;28;20055;-81
2022/09/05 13:40:13;;;;;;;3.47;1.25;;;30.10;75.50;;;;;;4962329;28;20158;-80
2022/09/05 13:42:42;;;;;;;9.63;1.33;;;30.20;75.80;;;;;;4932203;28;20051;-80
2022/09/05 13:45:17;;;;;;;1.60;1.00;;;30.30;75.70;;;;;;4964310;28;20093;-80
2022/09/05 13:48:01;;;;;;;2.00;1.13;;;30.10;74.90;;;;;;4964175;28;20058;-80
2022/09/05 13:50:36;;;;;;;3.20;1.00;;;30.20;75.30;;;;;;4964156;28;20042;-80
2022/09/05 13:53:05;;;;;;;4.10;1.08;;;30.10;76.00;;;;;;4946928;28;20050;-80
2022/09/05 13:55:40;;;;;;;2.50;1.13;;;30.40;75.70;;;;;;4931956;28;20050;-80
2022/09/05 13:58:24;;;;;;;3.65;1.00;;;30.30;74.40;;;;;;4950847;28;20883;-78
2022/09/05 14:01:08;;;;;;;2.92;0.90;;;30.30;75.30;;;;;;4981529;28;20102;-81
2022/09/05 14:03:57;;;;;;;1.92;0.90;;;30.40;74.80;;;;;;4951146;28;20051;-81
2022/09/05 14:06:48;;;;;;;1.20;0.77;;;30.50;74.70;;;;;;4967063;28;20134;-80
2022/09/05 14:09:19;;;;;;;4.07;0.93;;;30.60;74.00;;;;;;4948782;28;20039;-80